Weather at Tcjc-Northeast Campus Heliport

Public forecast

Using degrees Fahrenheit for public forecast. Weather courtesy of forecast.io.

Closest aviation weather report (METAR) to Tcjc-Northeast Campus Heliport

Closest report is Dallas Fort Worth International Airport, 8.2 nm (15.2 km) ENE.

2024/05/30 22:53 (retrieved 11 minutes ago)

KDFW 302253Z 07003KT 10SM FEW015 FEW090 BKN170 BKN220 21/19 A2982 RMK AO2 SLP093 T02060189

Closest aviation forecast (TAF) to Tcjc-Northeast Campus Heliport

Closest forecast is Dallas Fort Worth International Airport, 8.2 nm (15.2 km) ENE.

2024/05/30 21:03 Ammendment (retrieved 2 hours ago)

TAF AMD KDFW 302059Z 3021/3124 06012KT P6SM VCSH BKN040 OVC090 FM310000 12008KT P6SM BKN025 FM310500 15008KT P6SM VCTS OVC015CB TEMPO 3106/3110 27025G35KT 2SM +TSRA BKN010CB FM311000 13008KT 6SM -SHRA BR OVC025 FM311600 21007KT P6SM OVC035